createdAt,value
2018-06-11T00:01:21.498Z,16.43
2018-06-11T00:04:24.649Z,15.63
2018-06-11T00:07:27.747Z,17.40
2018-06-11T00:10:30.873Z,15.73
2018-06-11T00:13:34.116Z,16.93
2018-06-11T00:16:37.290Z,16.97
2018-06-11T00:19:40.455Z,17.03
2018-06-11T00:22:43.689Z,16.60
2018-06-11T00:25:46.935Z,17.50
2018-06-11T00:28:50.340Z,16.87
2018-06-11T00:31:53.625Z,17.87
2018-06-11T00:34:56.911Z,16.57
2018-06-11T00:38:00.154Z,17.57
2018-06-11T00:41:03.325Z,18.03
2018-06-11T00:44:07.500Z,18.10
2018-06-11T00:47:10.697Z,18.87
2018-06-11T00:50:14.958Z,18.47
2018-06-11T00:53:18.007Z,17.27
2018-06-11T00:56:21.180Z,17.33
2018-06-11T00:59:24.250Z,18.37
2018-06-11T01:02:27.408Z,18.60
2018-06-11T01:05:30.776Z,17.80
2018-06-11T01:08:34.020Z,18.53
2018-06-11T01:11:37.312Z,19.63
2018-06-11T01:14:40.453Z,19.73
2018-06-11T01:17:43.654Z,20.63
2018-06-11T01:20:46.806Z,22.37
2018-06-11T01:23:49.941Z,22.97
2018-06-11T01:26:53.105Z,23.93
2018-06-11T01:29:56.160Z,24.00
2018-06-11T01:32:59.353Z,24.60
2018-06-11T01:36:02.661Z,24.60
2018-06-11T01:39:07.210Z,24.33
2018-06-11T01:42:10.332Z,25.13
2018-06-11T01:45:13.351Z,26.70
2018-06-11T01:48:16.688Z,27.67
2018-06-11T01:51:19.743Z,26.73
2018-06-11T01:54:22.868Z,27.33
2018-06-11T01:57:25.923Z,27.20
2018-06-11T02:00:29.065Z,27.30
2018-06-11T02:03:32.176Z,29.10
2018-06-11T02:06:35.287Z,29.80
2018-06-11T02:09:38.276Z,28.20
2018-06-11T02:12:41.475Z,27.63
2018-06-11T02:15:44.650Z,27.30
2018-06-11T02:18:47.673Z,27.17
2018-06-11T02:21:50.884Z,27.37
2018-06-11T02:24:54.068Z,26.90
2018-06-11T02:27:57.242Z,26.67
2018-06-11T02:31:00.315Z,27.93
2018-06-11T02:34:03.520Z,27.93
2018-06-11T02:40:07.352Z,26.97
2018-06-11T02:43:10.591Z,26.87
2018-06-11T02:46:13.662Z,27.00
2018-06-11T02:49:16.840Z,27.00
2018-06-11T02:52:19.996Z,25.17
2018-06-11T02:55:23.015Z,25.63
2018-06-11T02:58:26.210Z,27.23
2018-06-11T03:01:29.316Z,27.17
2018-06-11T03:04:33.049Z,27.27
2018-06-11T03:07:36.230Z,29.47
2018-06-11T03:10:39.374Z,29.47
2018-06-11T03:13:42.583Z,27.80
2018-06-11T03:16:46.730Z,28.70
2018-06-11T03:19:49.818Z,28.13
2018-06-11T03:22:53.150Z,27.43
2018-06-11T03:25:56.266Z,27.97
2018-06-11T03:28:59.284Z,27.30
2018-06-11T03:32:02.665Z,28.73
2018-06-11T03:35:05.735Z,27.37
2018-06-11T03:38:08.734Z,28.07
2018-06-11T03:41:11.906Z,29.93
2018-06-11T03:44:15.057Z,28.63
2018-06-11T03:47:18.200Z,26.87
2018-06-11T03:50:21.334Z,26.03
2018-06-11T03:53:24.539Z,25.40
2018-06-11T03:56:27.693Z,25.63
2018-06-11T03:59:30.766Z,26.27
2018-06-11T04:02:33.821Z,23.53
2018-06-11T04:05:37.005Z,25.10
2018-06-11T04:08:40.166Z,24.23
2018-06-11T04:11:43.302Z,24.60
2018-06-11T04:14:46.424Z,24.40
2018-06-11T04:17:49.536Z,24.37
2018-06-11T04:20:52.723Z,23.87
2018-06-11T04:23:55.790Z,23.30
2018-06-11T04:26:58.949Z,22.17
2018-06-11T04:30:02.150Z,22.30
2018-06-11T04:33:05.396Z,21.57
2018-06-11T04:36:08.417Z,22.10
2018-06-11T04:39:11.569Z,20.63
2018-06-11T04:42:14.647Z,21.57
2018-06-11T04:45:17.782Z,22.47
2018-06-11T04:48:20.765Z,21.93
2018-06-11T04:51:23.990Z,22.03
2018-06-11T04:54:27.092Z,22.67
2018-06-11T04:57:30.098Z,22.33
2018-06-11T05:00:33.155Z,22.90
2018-06-11T05:03:36.300Z,22.27
2018-06-11T05:06:39.354Z,22.67
2018-06-11T05:09:42.408Z,20.90
2018-06-11T05:12:45.675Z,21.03
2018-06-11T05:15:48.783Z,19.60
2018-06-11T05:18:52.054Z,20.10
2018-06-11T05:21:55.506Z,20.70
2018-06-11T05:24:58.874Z,20.23
2018-06-11T05:28:02.221Z,19.50
2018-06-11T05:31:05.397Z,20.13
2018-06-11T05:34:08.440Z,19.03
2018-06-11T05:37:11.690Z,20.23
2018-06-11T05:40:15.051Z,19.37
2018-06-11T05:43:18.361Z,19.97
2018-06-11T05:46:21.691Z,20.20
2018-06-11T05:49:24.804Z,19.77
2018-06-11T05:52:27.954Z,16.90
2018-06-11T05:55:31.001Z,18.60
2018-06-11T05:58:34.108Z,18.80
2018-06-11T06:01:37.184Z,19.60
2018-06-11T06:04:40.329Z,19.10
2018-06-11T06:07:43.449Z,19.37
2018-06-11T06:10:46.707Z,20.33
2018-06-11T06:13:50.771Z,21.40
2018-06-11T06:16:53.850Z,20.93
2018-06-11T06:19:57.801Z,19.47
2018-06-11T06:23:00.862Z,20.23
2018-06-11T06:26:05.456Z,20.40
2018-06-11T06:29:08.643Z,21.33
2018-06-11T06:32:11.883Z,19.30
2018-06-11T06:35:14.919Z,21.50
2018-06-11T06:38:18.346Z,20.27
2018-06-11T06:41:21.617Z,19.30
2018-06-11T06:44:25.037Z,17.57
2018-06-11T06:47:28.350Z,18.50
2018-06-11T06:50:31.659Z,18.03
2018-06-11T06:53:34.903Z,19.43
2018-06-11T06:56:38.275Z,20.97
2018-06-11T06:59:41.711Z,20.90
2018-06-11T07:02:45.084Z,22.47
2018-06-11T07:05:49.432Z,22.43
2018-06-11T07:08:53.342Z,19.67
2018-06-11T07:11:56.374Z,21.67
2018-06-11T07:14:59.502Z,21.00
2018-06-11T07:18:02.698Z,21.40
2018-06-11T07:21:05.791Z,20.13
2018-06-11T07:24:09.135Z,20.73
2018-06-11T07:27:13.518Z,22.23
2018-06-11T07:30:16.598Z,20.47
2018-06-11T07:33:20.834Z,19.53
2018-06-11T07:36:24.144Z,21.07
2018-06-11T07:39:30.842Z,20.37
2018-06-11T07:42:34.047Z,19.33
2018-06-11T07:45:38.388Z,18.37
2018-06-11T07:48:42.614Z,17.87
2018-06-11T07:51:48.191Z,18.87
2018-06-11T07:54:51.707Z,18.73
2018-06-11T07:57:55.073Z,18.47
2018-06-11T08:00:59.422Z,18.87
2018-06-11T08:04:02.835Z,17.40
2018-06-11T08:07:06.591Z,18.67
2018-06-11T08:10:09.965Z,18.50
2018-06-11T08:13:13.872Z,19.37
2018-06-11T08:16:17.026Z,20.43
2018-06-11T08:19:20.384Z,20.53
2018-06-11T08:22:24.725Z,19.47
2018-06-11T08:25:27.988Z,18.00
2018-06-11T08:28:31.515Z,19.73
2018-06-11T08:31:35.672Z,21.43
2018-06-11T08:34:39.002Z,19.87
2018-06-11T08:37:42.424Z,19.00
2018-06-11T08:40:46.043Z,20.50
2018-06-11T08:43:49.392Z,19.57
2018-06-11T08:46:52.616Z,20.73
2018-06-11T08:49:56.806Z,20.60
2018-06-11T08:52:59.987Z,21.13
2018-06-11T08:56:03.320Z,20.47
2018-06-11T08:59:07.517Z,19.63
2018-06-11T09:02:11.166Z,18.83
2018-06-11T09:05:14.662Z,18.63
2018-06-11T09:08:18.217Z,19.83
2018-06-11T09:11:21.514Z,19.47
2018-06-11T09:14:25.929Z,18.47
2018-06-11T09:17:29.193Z,18.03
2018-06-11T09:20:33.226Z,18.97
2018-06-11T09:23:36.229Z,18.23
2018-06-11T09:26:39.582Z,18.53
2018-06-11T09:29:42.906Z,20.23
2018-06-11T09:32:46.319Z,19.07
2018-06-11T09:35:49.673Z,19.17
2018-06-11T09:38:53.101Z,19.77
2018-06-11T09:41:58.400Z,21.53
2018-06-11T09:45:03.782Z,19.93
2018-06-11T09:48:07.065Z,19.50
2018-06-11T09:51:10.544Z,17.90
2018-06-11T09:54:14.149Z,17.67
2018-06-11T09:57:17.822Z,19.20
2018-06-11T10:00:26.937Z,16.87
2018-06-11T10:03:30.805Z,17.07
2018-06-11T10:06:34.784Z,17.60
2018-06-11T10:09:38.336Z,17.57
2018-06-11T10:12:42.014Z,17.57
2018-06-11T10:15:45.961Z,17.03
2018-06-11T10:18:49.453Z,16.70
2018-06-11T10:21:53.044Z,16.57
2018-06-11T10:24:56.417Z,16.03
2018-06-11T10:27:59.905Z,15.17
2018-06-11T10:31:03.305Z,18.93
2018-06-11T10:34:06.582Z,17.07
2018-06-11T10:37:09.740Z,17.17
2018-06-11T10:40:13.009Z,18.63
2018-06-11T10:43:16.378Z,18.83
2018-06-11T10:46:19.698Z,15.90
2018-06-11T10:49:23.174Z,16.90
2018-06-11T10:52:26.543Z,16.97
2018-06-11T10:55:29.680Z,15.53
2018-06-11T10:58:32.883Z,16.90
2018-06-11T11:01:36.404Z,14.63
2018-06-11T11:04:40.229Z,16.80
2018-06-11T11:07:43.928Z,16.13
2018-06-11T11:10:47.460Z,16.00
2018-06-11T11:13:50.936Z,16.93
2018-06-11T11:16:54.542Z,15.10
2018-06-11T11:19:57.748Z,15.40
2018-06-11T11:23:00.923Z,14.97
2018-06-11T11:26:04.022Z,17.90
2018-06-11T11:29:08.138Z,16.50
2018-06-11T11:32:11.367Z,15.33
2018-06-11T11:35:14.709Z,16.23
2018-06-11T11:38:18.044Z,13.70
2018-06-11T11:41:21.648Z,15.87
2018-06-11T11:44:26.099Z,16.80
2018-06-11T11:47:29.510Z,16.40
2018-06-11T11:50:33.025Z,17.60
2018-06-11T11:53:36.402Z,16.70
2018-06-11T11:56:40.780Z,16.80
2018-06-11T11:59:43.889Z,19.17
2018-06-11T12:02:47.586Z,17.13
2018-06-11T12:05:50.900Z,18.00
2018-06-11T12:08:54.037Z,16.07
2018-06-11T12:11:57.208Z,17.03
2018-06-11T12:15:00.461Z,17.97
2018-06-11T12:18:03.637Z,19.03
2018-06-11T12:21:07.023Z,17.97
2018-06-11T12:24:10.119Z,18.23
2018-06-11T12:27:13.422Z,18.43
2018-06-11T12:30:16.813Z,18.17
2018-06-11T12:33:19.867Z,16.60
2018-06-11T12:36:23.089Z,18.00
2018-06-11T12:39:26.469Z,17.67
2018-06-11T12:42:29.718Z,17.17
2018-06-11T12:45:32.830Z,15.97
2018-06-11T12:48:35.969Z,17.33
2018-06-11T12:51:39.283Z,18.37
2018-06-11T12:54:42.690Z,18.43
2018-06-11T12:57:46.058Z,19.00
2018-06-11T13:00:49.372Z,19.73
2018-06-11T13:03:52.582Z,18.33
2018-06-11T13:06:58.001Z,17.73
2018-06-11T13:10:04.515Z,20.43
2018-06-11T13:13:08.841Z,18.33
2018-06-11T13:16:12.330Z,18.80
2018-06-11T13:19:15.763Z,19.30
2018-06-11T13:22:19.252Z,17.73
2018-06-11T13:25:22.957Z,18.57
2018-06-11T13:28:26.444Z,18.43
2018-06-11T13:31:29.753Z,17.37
2018-06-11T13:34:33.181Z,16.13
2018-06-11T13:37:36.215Z,19.20
2018-06-11T13:40:39.419Z,17.53
2018-06-11T13:43:42.928Z,19.30
2018-06-11T13:46:47.270Z,17.80
2018-06-11T13:49:50.873Z,16.03
2018-06-11T13:52:56.259Z,17.30
2018-06-11T13:56:00.557Z,19.80
2018-06-11T13:59:03.982Z,18.87
2018-06-11T14:02:07.267Z,18.40
2018-06-11T14:05:10.520Z,19.57
2018-06-11T14:08:13.990Z,18.60
2018-06-11T14:11:18.071Z,18.30
2018-06-11T14:14:21.272Z,19.20
2018-06-11T14:17:24.445Z,19.97
2018-06-11T14:20:27.669Z,18.70
2018-06-11T14:23:30.757Z,17.97
2018-06-11T14:26:33.922Z,20.40
2018-06-11T14:29:38.215Z,19.43
2018-06-11T14:32:43.377Z,19.87
2018-06-11T14:35:46.522Z,22.60
2018-06-11T14:38:49.805Z,22.00
2018-06-11T14:41:53.804Z,23.27
2018-06-11T14:44:57.115Z,23.47
2018-06-11T14:48:00.394Z,24.97
2018-06-11T14:51:03.616Z,26.43
2018-06-11T14:54:06.902Z,26.47
2018-06-11T14:57:10.152Z,26.10
2018-06-11T15:00:13.437Z,26.13
2018-06-11T15:03:17.190Z,26.33
2018-06-11T15:06:20.454Z,26.70
2018-06-11T15:09:23.662Z,28.03
2018-06-11T15:12:28.000Z,26.77
2018-06-11T15:15:31.339Z,27.63
2018-06-11T15:18:34.343Z,24.87
2018-06-11T15:21:37.409Z,27.70
2018-06-11T15:24:40.671Z,27.60
2018-06-11T15:27:44.171Z,27.43
2018-06-11T15:30:47.310Z,27.50
2018-06-11T15:33:50.929Z,26.63
2018-06-11T15:36:54.379Z,27.30
2018-06-11T15:39:58.836Z,25.40
2018-06-11T15:43:02.244Z,26.53
2018-06-11T15:46:06.550Z,23.90
2018-06-11T15:49:09.871Z,27.50
2018-06-11T15:52:13.209Z,26.23
2018-06-11T15:55:16.708Z,27.90
2018-06-11T15:58:20.372Z,29.47
2018-06-11T16:01:23.723Z,26.53
2018-06-11T16:04:29.453Z,27.87
2018-06-11T16:07:32.859Z,26.20
2018-06-11T16:10:35.956Z,29.37
2018-06-11T16:13:40.212Z,28.37
2018-06-11T16:16:43.648Z,26.27
2018-06-11T16:19:47.208Z,25.33
2018-06-11T16:22:51.368Z,23.70
2018-06-11T16:25:54.647Z,25.40
2018-06-11T16:28:58.062Z,26.00
2018-06-11T16:32:08.271Z,24.23
2018-06-11T16:35:11.867Z,25.50
2018-06-11T16:38:14.980Z,24.77
2018-06-11T16:41:18.061Z,25.33
2018-06-11T16:44:21.232Z,24.90
2018-06-11T16:47:24.323Z,26.23
2018-06-11T16:50:27.439Z,25.37
2018-06-11T16:53:30.587Z,24.43
2018-06-11T16:56:33.628Z,24.30
2018-06-11T16:59:38.866Z,25.07
2018-06-11T17:02:42.222Z,26.80
2018-06-11T17:05:45.750Z,25.83
2018-06-11T17:08:48.895Z,26.83
2018-06-11T17:11:51.928Z,27.10
2018-06-11T17:14:55.125Z,26.40
2018-06-11T17:17:58.219Z,26.57
2018-06-11T17:21:01.420Z,26.60
2018-06-11T17:24:04.646Z,28.03
2018-06-11T17:27:07.950Z,27.63
2018-06-11T17:30:11.102Z,29.70
2018-06-11T17:33:14.620Z,25.47
2018-06-11T17:36:18.098Z,25.50
2018-06-11T17:39:21.493Z,25.37
2018-06-11T17:42:25.018Z,25.67
2018-06-11T17:45:29.103Z,24.60
2018-06-11T17:48:32.219Z,26.23
2018-06-11T17:51:35.545Z,27.23
2018-06-11T17:54:38.753Z,27.80
2018-06-11T17:57:41.928Z,29.83
2018-06-11T18:00:45.074Z,30.53
2018-06-11T18:03:48.120Z,24.50
2018-06-11T18:06:51.213Z,27.17
2018-06-11T18:09:55.353Z,24.77
2018-06-11T18:12:58.425Z,22.77
2018-06-11T18:16:01.658Z,24.47
2018-06-11T18:19:05.175Z,23.87
2018-06-11T18:22:08.584Z,23.73
2018-06-11T18:25:12.127Z,23.53
2018-06-11T18:28:15.504Z,23.57
2018-06-11T18:31:20.059Z,26.53
2018-06-11T18:34:23.413Z,27.53
2018-06-11T18:37:26.977Z,29.67
2018-06-11T18:40:30.205Z,31.90
2018-06-11T18:43:33.865Z,30.47
2018-06-11T18:46:37.452Z,31.33
2018-06-11T18:49:40.684Z,32.87
2018-06-11T18:52:43.796Z,32.77
2018-06-11T18:55:47.014Z,33.37
2018-06-11T18:58:50.323Z,32.97
2018-06-11T19:01:53.566Z,32.23
2018-06-11T19:04:56.871Z,33.67
2018-06-11T19:07:59.993Z,35.63
2018-06-11T19:11:03.350Z,36.77
2018-06-11T19:14:06.702Z,35.50
2018-06-11T19:17:10.104Z,35.20
2018-06-11T19:20:13.342Z,19.53
2018-06-11T19:23:16.598Z,20.37
2018-06-11T19:26:20.659Z,19.17
2018-06-11T19:29:23.766Z,17.50
2018-06-11T19:32:27.265Z,18.90
2018-06-11T19:35:30.973Z,18.43
2018-06-11T19:38:34.225Z,15.83
2018-06-11T19:41:37.377Z,16.10
2018-06-11T19:44:40.568Z,18.50
2018-06-11T19:47:44.013Z,16.13
2018-06-11T19:50:47.307Z,16.30
2018-06-11T19:53:51.151Z,15.47
2018-06-11T19:56:54.425Z,14.30
2018-06-11T19:59:57.637Z,16.17
2018-06-11T20:03:00.846Z,12.77
2018-06-11T20:06:03.912Z,13.10
2018-06-11T20:09:07.619Z,14.00
2018-06-11T20:12:10.899Z,13.83
2018-06-11T20:15:14.012Z,14.00
2018-06-11T20:18:17.079Z,14.63
2018-06-11T20:21:20.335Z,16.63
2018-06-11T20:24:23.709Z,15.00
2018-06-11T20:27:26.934Z,16.43
2018-06-11T20:30:30.441Z,14.53
2018-06-11T20:33:33.789Z,14.87
2018-06-11T20:36:36.826Z,13.27
2018-06-11T20:39:39.881Z,14.53
2018-06-11T20:42:42.947Z,14.83
2018-06-11T20:45:46.133Z,12.83
2018-06-11T20:48:49.258Z,12.07
2018-06-11T20:51:52.518Z,11.77
2018-06-11T20:54:55.832Z,12.93
2018-06-11T20:57:59.128Z,13.57
2018-06-11T21:01:03.288Z,12.40
2018-06-11T21:04:06.746Z,14.53
2018-06-11T21:07:09.865Z,12.67
2018-06-11T21:10:13.225Z,11.13
2018-06-11T21:13:16.337Z,12.73
2018-06-11T21:16:19.483Z,10.83
2018-06-11T21:19:22.729Z,11.77
2018-06-11T21:22:25.860Z,12.30
2018-06-11T21:25:29.023Z,12.10
2018-06-11T21:28:32.217Z,11.43
2018-06-11T21:31:35.292Z,11.60
2018-06-11T21:34:38.374Z,13.47
2018-06-11T21:37:41.477Z,12.53
2018-06-11T21:40:44.826Z,12.63
2018-06-11T21:43:48.032Z,12.17
2018-06-11T21:46:51.225Z,12.50
2018-06-11T21:49:54.397Z,13.27
2018-06-11T21:52:57.475Z,13.67
2018-06-11T21:56:00.666Z,12.37
2018-06-11T21:59:04.897Z,13.73
2018-06-11T22:02:08.000Z,12.60
2018-06-11T22:05:11.126Z,13.43
2018-06-11T22:08:14.144Z,12.80
2018-06-11T22:11:17.191Z,13.17
2018-06-11T22:14:20.333Z,13.70
2018-06-11T22:17:23.521Z,13.90
2018-06-11T22:20:26.730Z,13.17
2018-06-11T22:23:29.912Z,13.17
2018-06-11T22:26:33.287Z,13.13
2018-06-11T22:29:36.539Z,11.60
2018-06-11T22:32:39.807Z,12.97
2018-06-11T22:35:43.654Z,12.33
2018-06-11T22:38:48.095Z,13.43
2018-06-11T22:41:52.341Z,13.37
2018-06-11T22:45:01.988Z,13.23
2018-06-11T22:48:05.683Z,12.23
2018-06-11T22:51:09.128Z,14.20
2018-06-11T22:54:13.126Z,13.87
2018-06-11T22:57:16.325Z,13.30
2018-06-11T23:00:38.584Z,14.00
2018-06-11T23:03:41.934Z,13.30
2018-06-11T23:06:46.140Z,14.47
2018-06-11T23:09:49.513Z,14.73
2018-06-11T23:12:53.234Z,17.77
2018-06-11T23:15:56.515Z,18.00
2018-06-11T23:18:59.995Z,18.60
2018-06-11T23:22:03.624Z,18.47
2018-06-11T23:25:07.561Z,17.87
2018-06-11T23:28:10.597Z,15.00
2018-06-11T23:31:13.769Z,14.77
2018-06-11T23:34:16.959Z,15.03
2018-06-11T23:37:20.110Z,12.97
2018-06-11T23:40:23.175Z,13.87
2018-06-11T23:43:27.340Z,12.90
2018-06-11T23:46:30.497Z,13.30
2018-06-11T23:49:33.649Z,15.30
2018-06-11T23:52:36.779Z,16.10
2018-06-11T23:55:40.830Z,15.93
2018-06-11T23:58:43.998Z,13.63
